Latest Weather Observations for Giles*

IDD60801

Issued at 8:02 am CST Friday 27 March 2015 (issued every 30 minutes, with the page automatically refreshed every 10 minutes)

About weather observations | Map of weather stations | Latest weather observations for NT | Other Formats
Station Details ID: 013017 Name: GILES METEOROLOGICAL OFFICE Lat: -25.03 Lon: 128.30 Height: 598.0 m
Data from the previous 72 hours. | See also: Recent months at Giles*

* Giles observations are collected in the South Australia time zone, which includes daylight saving in the summer period. Therefore, Rain since 9am value is with respect to South Australia local time.

Date/Time
CST
Temp
°C
App
Temp
°C
Dew
Point
Rel
Hum
%
Delta-T
°C
Wind Press
QNH
hPa
Press
MSL
hPa
Rain
since 9 am
mm
Dir
 
Spd
km/h
Gust
km/h
Spd
kts
Gust
kts
27/07:30am 20.8 17.0 3.7 32 8.4 E 13 22 7 12 1023.5 1019.4 0.0
27/07:00am 20.8 14.4 3.4 31 8.5 ENE 26 43 14 23 1023.1 1019.0 0.0
27/06:30am 20.4 14.7 3.1 32 8.4 ENE 22 32 12 17 1022.9 1018.8 0.0
27/06:00am 20.4 15.2 3.4 32 8.3 ENE 20 30 11 16 1022.8 1018.7 0.0
27/05:30am 20.4 15.2 2.7 31 8.5 E 19 26 10 14 1022.7 1018.6 0.0
27/05:00am 20.5 15.3 2.6 30 8.6 E 19 26 10 14 1022.3 1018.3 0.0
27/04:30am 20.9 15.4 2.0 28 9.0 ESE 20 30 11 16 1022.2 1018.2 0.0
27/04:00am 19.8 15.7 2.4 31 8.3 ESE 13 19 7 10 1022.3 1018.3 0.0
27/03:30am 19.7 14.8 1.9 30 8.4 ESE 17 20 9 11 1022.3 1018.3 0.0
27/03:00am 19.6 15.9 2.3 31 8.2 SE 11 15 6 8 1022.7 1018.6 0.0
27/02:30am 20.7 16.2 2.0 29 8.9 ESE 15 20 8 11 1022.8 1018.7 0.0
27/02:00am 21.2 16.7 1.9 28 9.2 ESE 15 20 8 11 1022.9 1018.8 0.0
27/01:30am 21.7 17.1 1.8 27 9.5 ESE 15 20 8 11 1023.2 1019.1 0.0
27/01:00am 21.6 16.7 1.9 27 9.4 ESE 17 20 9 11 1023.3 1019.2 0.0
27/12:30am 20.5 16.9 3.2 32 8.4 SE 11 15 6 8 1023.7 1019.7 0.0
27/12:00am 20.7 17.5 3.2 31 8.5 SE 9 13 5 7 1023.9 1019.9 0.0
 
Date/Time
CST
Temp
°C
App
Temp
°C
Dew
Point
Rel
Hum
%
Delta-T
°C
Wind Press
QNH
hPa
Press
MSL
hPa
Rain
since 9 am
mm
Dir
 
Spd
km/h
Gust
km/h
Spd
kts
Gust
kts
26/11:30pm 21.6 17.6 2.9 29 9.1 ESE 13 17 7 9 1024.1 1020.1 0.0
26/11:00pm 22.0 18.5 3.6 30 9.1 SE 11 13 6 7 1024.3 1020.3 0.0
26/10:30pm 22.9 18.9 3.0 27 9.8 ESE 13 19 7 10 1024.2 1020.2 0.0
26/10:00pm 23.3 18.9 2.7 26 10.1 ESE 15 20 8 11 1024.2 1020.2 0.0
26/09:30pm 23.5 18.4 2.8 26 10.2 SE 19 26 10 14 1024.2 1020.2 0.0
26/09:00pm 23.7 18.5 2.5 25 10.4 SE 19 22 10 12 1024.0 1020.0 0.0
26/08:30pm 23.9 18.5 2.5 24 10.5 SE 20 26 11 14 1023.8 1019.8 0.0
26/08:00pm 23.9 18.5 2.5 24 10.5 SE 20 26 11 14 1023.4 1019.3 0.0
26/07:30pm 24.2 19.0 3.4 26 10.4 SE 20 26 11 14 1023.2 1019.1 0.0
26/07:00pm 24.5 19.3 3.7 26 10.5 SE 20 28 11 15 1022.9 1018.8 0.0
26/06:30pm 24.9 19.6 2.8 23 11.0 SE 20 26 11 14 1022.7 1018.6 0.0
26/06:00pm 25.3 19.2 2.5 22 11.3 SE 24 30 13 16 1022.5 1018.5 0.0
26/05:30pm 25.8 19.7 2.8 22 11.5 SE 24 32 13 17 1022.2 1018.2 0.0
26/05:00pm 26.4 21.0 2.3 21 12.0 SE 20 28 11 15 1022.3 1018.3 0.0
26/04:30pm 26.7 21.3 1.1 19 12.5 SE 19 24 10 13 1022.4 1018.4 0.0
26/04:00pm 26.7 21.0 0.3 18 12.7 ESE 20 26 11 14 1022.4 1018.4 0.0
26/03:30pm 26.8 21.0 -0.2 17 12.9 E 20 30 11 16 1022.5 1018.5 0.0
26/03:00pm 26.7 21.4 -0.5 17 12.9 ENE 17 24 9 13 1022.9 1018.8 0.0
26/02:30pm 26.8 21.1 -1.1 16 13.1 E 19 26 10 14 1023.0 1018.9 0.0
26/02:00pm 27.0 21.0 -1.5 15 13.3 E 20 28 11 15 1023.3 1019.2 0.0
26/01:30pm 27.2 21.7 -1.9 15 13.5 E 17 24 9 13 1023.5 1019.4 0.0
26/01:00pm 27.6 21.5 -2.2 14 13.9 E 20 33 11 18 1023.7 1019.7 0.0
26/12:30pm 27.3 20.8 -2.5 14 13.7 E 22 32 12 17 1024.1 1020.1 0.0
26/12:00pm 26.1 19.6 -2.4 15 13.0 ESE 22 35 12 19 1024.6 1020.5 0.0
26/11:30am 25.0 18.4 -2.9 15 12.5 E 22 35 12 19 1025.0 1020.9 0.0
26/11:00am 23.6 17.7 -1.9 18 11.5 ESE 19 26 10 14 1025.4 1021.4 0.0
26/10:30am 22.9 17.5 -1.4 20 11.0 ESE 17 24 9 13 1025.5 1021.5 0.0
26/10:00am 22.6 16.3 -1.3 20 10.9 ESE 22 32 12 17 1025.3 1021.3 0.0
26/09:30am 22.0 16.0 -1.3 21 10.5 ESE 20 26 11 14 1025.4 1021.4 0.0
26/09:00am 21.4 15.7 -1.0 22 10.1 ESE 19 24 10 13 1025.1 1021.0 0.0
26/08:30am 21.2 15.9 -0.7 23 9.9 ESE 17 24 9 13 1024.8 1020.7 0.0
26/08:00am 21.0 16.0 -1.1 22 9.9 SSE 15 22 8 12 1024.1 1020.1 0.2
26/07:30am 21.1 15.8 -0.8 23 9.9 ESE 17 26 9 14 1023.6 1019.5 0.2
26/07:00am 21.0 15.1 -1.0 23 9.9 ESE 20 32 11 17 1023.1 1019.0 0.2
26/06:30am 21.2 14.1 -1.4 22 10.1 ESE 26 35 14 19 1022.5 1018.5 0.2
26/06:00am 21.1 14.4 -1.2 22 10.0 ESE 24 37 13 20 1022.3 1018.3 0.2
26/05:30am 21.2 13.8 -1.0 22 10.0 ESE 28 37 15 20 1021.9 1017.8 0.2
26/05:00am 21.2 14.1 -1.0 22 10.0 ESE 26 35 14 19 1021.8 1017.7 0.2
26/04:30am 21.1 14.4 -0.8 23 9.9 ESE 24 35 13 19 1021.6 1017.5 0.2
26/04:00am 21.1 14.1 -0.4 23 9.8 ESE 26 35 14 19 1021.5 1017.4 0.2
26/03:30am 21.0 15.0 0.8 26 9.4 SE 22 30 12 16 1021.6 1017.5 0.2
26/03:00am 21.3 15.0 1.4 26 9.4 SE 24 32 13 17 1021.7 1017.6 0.2
26/02:30am 21.4 15.3 2.6 29 9.1 SE 24 32 13 17 1021.7 1017.6 0.2
26/02:00am 21.9 16.1 2.2 27 9.5 SE 22 32 12 17 1021.8 1017.7 0.2
26/01:30am 22.4 16.6 2.1 26 9.8 SE 22 30 12 16 1021.6 1017.5 0.2
26/01:00am 23.1 16.8 1.7 24 10.3 SE 24 32 13 17 1021.8 1017.7 0.2
26/12:30am 23.3 17.5 2.1 25 10.3 SE 22 33 12 18 1021.8 1017.7 0.2
26/12:00am 23.7 18.3 2.5 25 10.4 SE 20 32 11 17 1021.7 1017.6 0.2
 
Date/Time
CST
Temp
°C
App
Temp
°C
Dew
Point
Rel
Hum
%
Delta-T
°C
Wind Press
QNH
hPa
Press
MSL
hPa
Rain
since 9 am
mm
Dir
 
Spd
km/h
Gust
km/h
Spd
kts
Gust
kts
25/11:30pm 23.8 18.5 3.0 25 10.3 SE 20 26 11 14 1021.8 1017.7 0.2
25/11:00pm 24.3 18.6 2.6 24 10.7 SSE 22 33 12 18 1021.8 1017.7 0.2
25/10:30pm 24.7 18.4 3.7 25 10.6 SSE 26 39 14 21 1021.8 1017.7 0.2
25/10:00pm 25.3 19.4 5.7 28 10.3 SSE 26 35 14 19 1021.6 1017.5 0.2
25/09:30pm 25.6 19.0 6.2 29 10.3 SSE 30 46 16 25 1021.3 1017.2 0.2
25/09:27pm 25.6 19.4 6.2 29 10.3 SSE 28 46 15 25 1021.3 1017.2 0.2
25/09:00pm 26.2 21.5 7.7 31 10.1 SSE 22 30 12 16 1021.2 1017.1 0.2
25/08:30pm 27.1 24.0 8.9 31 10.2 SE 15 20 8 11 1020.5 1016.4 0.2
25/08:00pm 27.4 24.4 9.1 31 10.3 SE 15 20 8 11 1020.3 1016.2 0.2
25/07:30pm 27.9 24.1 9.2 31 10.6 SSE 19 28 10 15 1019.7 1015.6 0.2
25/07:00pm 28.7 25.1 8.4 28 11.4 SSE 17 20 9 11 1019.6 1015.5 0.2
25/06:30pm 29.1 25.5 8.2 27 11.7 SSE 17 24 9 13 1019.2 1015.1 0.2
25/06:00pm 29.5 25.8 8.1 26 12.0 SSE 17 26 9 14 1018.9 1014.8 0.2
25/05:30pm 29.9 25.8 7.9 25 12.3 SSE 19 28 10 15 1018.7 1014.6 0.2
25/05:00pm 30.3 28.4 6.9 23 12.9 S 6 15 3 8 1018.6 1014.5 0.2
25/04:30pm 30.1 28.0 6.6 22 12.9 SW 7 17 4 9 1018.5 1014.4 0.2
25/04:00pm 31.0 28.4 6.1 21 13.6 E 9 19 5 10 1018.4 1014.3 0.2
25/03:30pm 29.5 26.6 6.7 23 12.5 SE 11 20 6 11 1018.8 1014.7 0.2
25/03:00pm 30.9 28.7 6.2 21 13.5 NNW 7 13 4 7 1019.1 1014.9 0.2
25/02:30pm 29.7 27.7 7.0 24 12.5 ENE 7 17 4 9 1019.4 1015.3 0.2
25/02:00pm 28.8 26.4 7.1 25 11.9 NE 9 15 5 8 1019.7 1015.6 0.2
25/01:30pm 29.0 27.4 8.0 26 11.7 NE 6 15 3 8 1020.2 1016.1 0.2
25/01:00pm 27.9 25.1 7.0 26 11.4 E 11 20 6 11 1020.5 1016.4 0.2
25/12:30pm 27.5 24.5 7.7 28 10.9 NE 13 20 7 11 1020.9 1016.8 0.2
25/12:00pm 27.9 24.4 7.0 26 11.4 NE 15 26 8 14 1021.1 1017.0 0.2
25/11:30am 27.3 22.7 6.5 26 11.2 ENE 20 28 11 15 1021.1 1017.0 0.2
25/11:00am 26.5 21.8 6.0 27 10.9 ENE 20 26 11 14 1021.1 1017.0 0.2
25/10:30am 26.1 20.9 5.6 27 10.8 E 22 32 12 17 1021.3 1017.2 0.2
25/10:00am 25.2 20.0 5.5 28 10.3 ENE 22 30 12 16 1021.3 1017.2 0.0
25/09:30am 23.4 17.4 5.1 30 9.4 E 26 35 14 19 1021.1 1017.0 0.0
25/09:00am 22.1 16.9 5.3 33 8.6 E 22 28 12 15 1021.1 1017.0 0.0
25/08:30am 21.4 16.1 5.0 34 8.3 E 22 32 12 17 1020.6 1016.6 0.0
25/08:00am 21.1 15.9 5.4 36 8.0 E 22 32 12 17 1020.6 1016.6 0.0
25/07:30am 20.8 14.9 5.8 37 7.7 E 26 35 14 19 1020.3 1016.2 0.0
25/07:00am 20.7 15.2 5.9 38 7.6 E 24 33 13 18 1020.3 1016.2 0.0
25/06:30am 20.3 15.0 6.6 41 7.1 E 24 33 13 18 1020.2 1016.1 0.0
25/06:00am 19.7 14.5 7.3 44 6.5 E 24 37 13 20 1019.9 1015.8 0.0
25/05:30am 19.4 14.0 8.1 48 6.0 E 26 39 14 21 1019.7 1015.6 0.0
25/05:00am 19.1 14.7 8.9 51 5.5 E 22 35 12 19 1019.5 1015.4 0.0
25/04:30am 18.7 14.8 9.3 54 5.1 ESE 20 26 11 14 1019.7 1015.6 0.0
25/04:00am 18.4 13.7 9.3 55 4.9 E 24 35 13 19 1019.5 1015.4 0.0
25/03:30am 18.1 14.1 10.3 60 4.3 ESE 22 35 12 19 1020.1 1016.0 0.0
25/03:00am 17.8 14.9 10.9 64 3.8 SE 17 24 9 13 1020.9 1016.8 0.0
25/02:30am 18.6 15.0 9.8 56 4.8 SSE 19 26 10 14 1021.1 1017.0 0.0
25/02:00am 18.3 13.4 9.9 58 4.6 SSE 26 35 14 19 1021.0 1016.9 0.0
25/01:30am 20.4 15.1 7.0 41 7.0 SSE 24 33 13 18 1021.2 1017.1 0.0
25/01:00am 21.5 16.0 5.7 35 8.1 SSE 24 35 13 19 1020.6 1016.6 0.0
25/12:34am 21.9 14.8 5.3 34 8.5 SSE 32 50 17 27 1019.9 1015.8 0.0
25/12:30am 22.0 14.6 4.9 32 8.7 SSE 33 50 18 27 1019.9 1015.8 0.0
25/12:25am 22.0 14.8 5.1 33 8.6 SSE 32 50 17 27 1019.8 1015.7 0.0
25/12:00am 22.6 16.0 4.4 30 9.2 SSE 28 41 15 22 1019.7 1015.6 0.0
 
Date/Time
CST
Temp
°C
App
Temp
°C
Dew
Point
Rel
Hum
%
Delta-T
°C
Wind Press
QNH
hPa
Press
MSL
hPa
Rain
since 9 am
mm
Dir
 
Spd
km/h
Gust
km/h
Spd
kts
Gust
kts
24/11:30pm 23.1 15.7 4.0 28 9.6 SSE 32 46 17 25 1020.1 1016.0 0.0
24/11:00pm 24.2 18.2 3.1 25 10.5 S 24 41 13 22 1020.4 1016.3 0.0
24/10:30pm 24.8 18.5 3.9 25 10.6 SSE 26 41 14 22 1020.4 1016.3 0.0
24/10:00pm 25.0 18.4 4.0 25 10.7 SSE 28 39 15 21 1020.3 1016.2 0.0
24/09:30pm 25.3 19.6 4.8 26 10.6 S 24 35 13 19 1020.3 1016.2 0.0
24/09:00pm 26.0 19.6 5.2 26 10.9 S 28 41 15 22 1019.9 1015.8 0.0
24/08:30pm 26.5 21.7 5.4 26 11.1 S 20 32 11 17 1019.5 1015.4 0.0
24/08:00pm 26.6 24.5 6.8 28 10.7 SSW 7 9 4 5 1019.3 1015.2 0.0
24/07:30pm 27.0 24.4 6.3 26 11.1 S 9 11 5 6 1018.9 1014.8 0.0
24/07:00pm 27.1 24.2 6.5 27 11.1 S 11 13 6 7 1018.3 1014.2 0.0
24/06:30pm 27.4 24.5 6.7 27 11.2 S 11 15 6 8 1018.4 1014.3 0.0
24/06:00pm 27.6 24.5 7.1 27 11.2 SSE 13 19 7 10 1018.1 1014.0 0.0
24/05:30pm 27.6 23.9 6.2 25 11.5 SSE 15 20 8 11 1018.2 1014.1 0.0
24/05:00pm 27.9 24.5 5.9 24 11.8 SE 13 20 7 11 1017.9 1013.8 0.0
24/04:30pm 28.4 24.6 5.9 24 12.1 SE 15 24 8 13 1017.9 1013.8 0.0
24/04:00pm 29.2 25.8 5.8 22 12.6 ESE 13 26 7 14 1017.6 1013.4 0.0
24/03:30pm 28.1 24.3 5.6 24 12.0 SE 15 24 8 13 1017.7 1013.6 0.0
24/03:00pm 27.8 25.0 7.1 27 11.3 E 11 19 6 10 1018.1 1014.0 0.0
24/02:30pm 28.0 24.3 6.3 25 11.7 E 15 26 8 14 1018.0 1013.9 0.0
24/02:00pm 27.0 23.6 6.0 26 11.2 E 13 24 7 13 1018.3 1014.2 0.0
24/01:30pm 26.6 22.3 5.3 25 11.2 ESE 17 26 9 14 1018.7 1014.6 0.0
24/01:00pm 26.3 22.1 5.7 26 10.9 E 17 24 9 13 1019.2 1015.1 0.0
24/12:30pm 25.3 21.2 6.0 29 10.2 E 17 28 9 15 1019.7 1015.6 0.0
24/12:00pm 25.3 21.0 5.4 27 10.4 ESE 17 22 9 12 1019.9 1015.8 0.0
24/11:30am 24.5 20.3 5.5 29 9.9 E 17 24 9 13 1020.3 1016.2 0.0
24/11:00am 24.9 20.5 4.7 27 10.4 E 17 28 9 15 1020.5 1016.4 0.0
24/10:30am 23.4 18.6 4.5 29 9.6 E 19 28 10 15 1021.1 1017.0 0.0
24/10:00am 21.5 16.4 4.3 32 8.6 ESE 20 28 11 15 1021.3 1017.2 0.0
24/09:30am 20.6 15.2 4.3 34 8.1 ESE 22 30 12 16 1021.3 1017.2 0.0
24/09:00am 20.2 14.4 4.3 35 7.9 SE 24 32 13 17 1020.7 1016.7 0.0
24/08:30am 20.0 13.8 4.5 36 7.7 SE 26 39 14 21 1020.5 1016.4 0.0
24/08:00am 19.8 14.0 4.5 36 7.6 ESE 24 32 13 17 1019.9 1015.8 0.0
24/07:30am 19.6 13.9 4.8 37 7.4 SE 24 35 13 19 1019.8 1015.7 0.0

Other Formats:

Comma delimited format used in spreadsheet applications
http://www.bom.gov.au/fwo/IDD60801/IDD60801.94461.axf

JavaScript Object Notation format (JSON) in row-major order
http://www.bom.gov.au/fwo/IDD60801/IDD60801.94461.json